createdAt,value
2017-10-28T00:00:54.921Z,0
2017-10-28T00:01:54.230Z,0
2017-10-28T00:02:54.561Z,0
2017-10-28T00:03:54.963Z,0
2017-10-28T00:04:54.862Z,0
2017-10-28T00:05:54.901Z,0
2017-10-28T00:06:54.879Z,0
2017-10-28T00:07:54.762Z,0
2017-10-28T00:08:54.801Z,0
2017-10-28T00:09:54.450Z,0
2017-10-28T00:10:54.721Z,0
2017-10-28T00:11:54.713Z,0
2017-10-28T00:12:54.773Z,0
2017-10-28T00:13:54.019Z,0
2017-10-28T00:14:54.347Z,0
2017-10-28T00:15:53.952Z,0
2017-10-28T00:16:54.369Z,0
2017-10-28T00:17:54.562Z,0
2017-10-28T00:18:54.211Z,0
2017-10-28T00:19:53.873Z,0
2017-10-28T00:20:54.602Z,0
2017-10-28T00:21:53.831Z,0
2017-10-28T00:22:54.162Z,0
2017-10-28T00:23:54.111Z,0
2017-10-28T00:24:54.085Z,0
2017-10-28T00:25:53.748Z,0
2017-10-28T00:26:54.395Z,0
2017-10-28T00:27:53.715Z,0
2017-10-28T00:28:53.734Z,0
2017-10-28T00:29:53.992Z,0
2017-10-28T00:30:54.306Z,0
2017-10-28T00:31:53.982Z,0
2017-10-28T00:32:53.953Z,0
2017-10-28T00:33:53.911Z,0
2017-10-28T00:34:53.902Z,0
2017-10-28T00:35:53.903Z,0
2017-10-28T00:36:54.192Z,0
2017-10-28T00:37:53.833Z,0
2017-10-28T00:38:53.814Z,0
2017-10-28T00:39:53.801Z,0
2017-10-28T00:40:54.111Z,0
2017-10-28T00:41:54.091Z,0
2017-10-28T00:42:54.133Z,0
2017-10-28T00:43:54.035Z,0
2017-10-28T00:44:53.505Z,0
2017-10-28T00:45:54.005Z,0
2017-10-28T00:46:54.082Z,0
2017-10-28T00:47:53.981Z,0
2017-10-28T00:48:53.946Z,0
2017-10-28T00:49:53.602Z,0
2017-10-28T00:50:53.923Z,0
2017-10-28T00:51:53.875Z,0
2017-10-28T00:52:53.926Z,0
2017-10-28T00:53:53.853Z,0
2017-10-28T00:54:53.631Z,0
2017-10-28T00:55:53.480Z,0
2017-10-28T00:56:53.180Z,0
2017-10-28T00:57:53.503Z,0
2017-10-28T00:58:53.855Z,0
2017-10-28T00:59:53.493Z,0
2017-10-28T01:00:53.155Z,0
2017-10-28T01:01:53.039Z,0
2017-10-28T01:02:53.358Z,0
2017-10-28T01:03:52.992Z,0
2017-10-28T01:04:52.995Z,0
2017-10-28T01:05:53.345Z,0
2017-10-28T01:06:53.341Z,0
2017-10-28T01:07:53.622Z,0
2017-10-28T01:08:52.903Z,0
2017-10-28T01:09:52.874Z,0
2017-10-28T01:10:53.221Z,0
2017-10-28T01:11:52.907Z,0
2017-10-28T01:12:53.449Z,0
2017-10-28T01:13:53.113Z,0
2017-10-28T01:14:53.142Z,0
2017-10-28T01:15:53.092Z,0
2017-10-28T01:16:52.908Z,0
2017-10-28T01:17:53.381Z,0
2017-10-28T01:18:53.452Z,0
2017-10-28T01:19:52.792Z,0
2017-10-28T01:20:52.991Z,0
2017-10-28T01:21:52.965Z,0
2017-10-28T01:22:52.982Z,0
2017-10-28T01:23:52.938Z,0
2017-10-28T01:24:52.910Z,0
2017-10-28T01:25:53.004Z,0
2017-10-28T01:26:52.537Z,0
2017-10-28T01:27:52.862Z,0
2017-10-28T01:28:52.816Z,0
2017-10-28T01:29:52.893Z,0
2017-10-28T01:30:52.785Z,0
2017-10-28T01:31:53.182Z,0
2017-10-28T01:32:53.082Z,0
2017-10-28T01:33:53.098Z,0
2017-10-28T01:34:53.104Z,0
2017-10-28T01:35:52.747Z,0
2017-10-28T01:36:52.982Z,0
2017-10-28T01:37:52.669Z,0
2017-10-28T01:38:52.636Z,0
2017-10-28T01:39:52.731Z,0
2017-10-28T01:40:52.910Z,0
2017-10-28T01:41:53.011Z,0
2017-10-28T01:42:52.872Z,0
2017-10-28T01:43:52.991Z,0
2017-10-28T01:44:52.515Z,0
2017-10-28T01:45:52.811Z,0
2017-10-28T01:46:52.894Z,0
2017-10-28T01:47:52.767Z,0
2017-10-28T01:48:52.507Z,0
2017-10-28T01:49:52.733Z,0
2017-10-28T01:50:52.372Z,0
2017-10-28T01:51:52.384Z,0
2017-10-28T01:52:52.346Z,0
2017-10-28T01:53:52.757Z,0
2017-10-28T01:54:52.410Z,0
2017-10-28T01:55:52.613Z,0
2017-10-28T01:56:52.618Z,0
2017-10-28T01:57:52.569Z,0
2017-10-28T01:58:52.217Z,0
2017-10-28T01:59:51.859Z,0
2017-10-28T02:00:52.171Z,0
2017-10-28T02:01:51.824Z,0
2017-10-28T02:02:52.134Z,0
2017-10-28T02:03:52.109Z,0
2017-10-28T02:04:52.445Z,0
2017-10-28T02:05:52.090Z,0
2017-10-28T02:06:52.385Z,0
2017-10-28T02:07:52.045Z,0
2017-10-28T02:08:52.352Z,0
2017-10-28T02:09:52.331Z,0
2017-10-28T02:10:52.346Z,0
2017-10-28T02:11:52.273Z,0
2017-10-28T02:12:51.942Z,0
2017-10-28T02:13:51.582Z,0
2017-10-28T02:14:52.222Z,0
2017-10-28T02:15:51.549Z,0
2017-10-28T02:16:52.226Z,0
2017-10-28T02:17:51.509Z,0
2017-10-28T02:18:51.922Z,0
2017-10-28T02:19:52.160Z,0
2017-10-28T02:20:52.114Z,0
2017-10-28T02:21:51.761Z,0
2017-10-28T02:22:51.416Z,0
2017-10-28T02:23:51.059Z,0
2017-10-28T02:24:51.681Z,0
2017-10-28T02:25:52.004Z,0
2017-10-28T02:26:51.328Z,0
2017-10-28T02:27:51.633Z,0
2017-10-28T02:28:51.301Z,0
2017-10-28T02:29:51.603Z,0
2017-10-28T02:30:51.291Z,0
2017-10-28T02:31:51.616Z,0
2017-10-28T02:32:51.216Z,0
2017-10-28T02:33:51.932Z,0
2017-10-28T02:34:51.811Z,0
2017-10-28T02:35:51.152Z,0
2017-10-28T02:36:51.774Z,0
2017-10-28T02:37:51.426Z,0
2017-10-28T02:38:51.413Z,0
2017-10-28T02:39:51.793Z,0
2017-10-28T02:40:51.054Z,0
2017-10-28T02:41:51.043Z,0
2017-10-28T02:42:51.671Z,0
2017-10-28T02:43:50.992Z,0
2017-10-28T02:44:51.020Z,0
2017-10-28T02:45:50.946Z,0
2017-10-28T02:46:51.592Z,0
2017-10-28T02:47:50.901Z,0
2017-10-28T02:48:50.882Z,0
2017-10-28T02:49:51.514Z,0
2017-10-28T02:50:51.482Z,0
2017-10-28T02:51:51.164Z,0
2017-10-28T02:52:51.512Z,0
2017-10-28T02:53:51.147Z,0
2017-10-28T02:54:51.236Z,0
2017-10-28T02:55:50.743Z,0
2017-10-28T02:56:51.081Z,0
2017-10-28T02:57:51.020Z,0
2017-10-28T02:58:51.318Z,0
2017-10-28T02:59:51.050Z,0
2017-10-28T03:00:50.974Z,0
2017-10-28T03:01:51.250Z,0
2017-10-28T03:02:50.925Z,0
2017-10-28T03:03:50.596Z,0
2017-10-28T03:04:50.877Z,0
2017-10-28T03:05:50.954Z,0
2017-10-28T03:06:50.956Z,0
2017-10-28T03:07:51.161Z,0
2017-10-28T03:08:50.913Z,0
2017-10-28T03:09:50.782Z,0
2017-10-28T03:10:50.790Z,0
2017-10-28T03:11:51.062Z,0
2017-10-28T03:12:50.827Z,0
2017-10-28T03:13:50.708Z,0
2017-10-28T03:14:50.346Z,0
2017-10-28T03:15:51.015Z,0
2017-10-28T03:16:50.644Z,0
2017-10-28T03:17:50.302Z,0
2017-10-28T03:18:50.924Z,0
2017-10-28T03:19:50.883Z,0
2017-10-28T03:20:50.241Z,0
2017-10-28T03:21:50.869Z,0
2017-10-28T03:22:50.610Z,0
2017-10-28T03:23:50.172Z,0
2017-10-28T03:24:50.825Z,0
2017-10-28T03:25:50.131Z,0
2017-10-28T03:26:50.765Z,0
2017-10-28T03:27:50.126Z,0
2017-10-28T03:28:50.723Z,0
2017-10-28T03:29:50.373Z,0
2017-10-28T03:30:50.360Z,0
2017-10-28T03:31:50.652Z,0
2017-10-28T03:32:50.384Z,0
2017-10-28T03:33:50.611Z,0
2017-10-28T03:34:50.325Z,0
2017-10-28T03:35:50.253Z,0
2017-10-28T03:36:50.284Z,0
2017-10-28T03:37:50.533Z,0
2017-10-28T03:38:50.525Z,0
2017-10-28T03:39:50.504Z,0
2017-10-28T03:40:50.482Z,0
2017-10-28T03:41:50.453Z,0
2017-10-28T03:42:50.122Z,0
2017-10-28T03:43:50.415Z,0
2017-10-28T03:44:50.383Z,0
2017-10-28T03:45:50.391Z,0
2017-10-28T03:46:50.362Z,0
2017-10-28T03:47:49.672Z,0
2017-10-28T03:48:49.660Z,0
2017-10-28T03:49:50.283Z,0
2017-10-28T03:50:50.025Z,0
2017-10-28T03:51:50.264Z,0
2017-10-28T03:52:50.246Z,0
2017-10-28T03:53:49.564Z,0
2017-10-28T03:54:50.178Z,0
2017-10-28T03:55:49.833Z,0
2017-10-28T03:56:49.935Z,0
2017-10-28T03:57:50.153Z,0
2017-10-28T03:58:49.233Z,0
2017-10-28T03:59:49.753Z,0
2017-10-28T04:00:49.744Z,0
2017-10-28T04:01:49.726Z,0
2017-10-28T04:02:49.699Z,0
2017-10-28T04:03:49.662Z,0
2017-10-28T04:04:49.742Z,0
2017-10-28T04:05:49.952Z,0
2017-10-28T04:06:49.951Z,0
2017-10-28T04:07:49.923Z,0
2017-10-28T04:08:49.885Z,0
2017-10-28T04:09:49.549Z,0
2017-10-28T04:10:49.852Z,0
2017-10-28T04:11:49.503Z,0
2017-10-28T04:12:49.497Z,0
2017-10-28T04:13:49.476Z,0
2017-10-28T04:14:49.466Z,0
2017-10-28T04:15:49.137Z,0
2017-10-28T04:16:49.083Z,0
2017-10-28T04:17:49.074Z,0
2017-10-28T04:18:49.351Z,0
2017-10-28T04:19:49.653Z,0
2017-10-28T04:20:49.042Z,0
2017-10-28T04:21:49.613Z,0
2017-10-28T04:22:49.388Z,0
2017-10-28T04:23:49.584Z,0
2017-10-28T04:24:49.255Z,0
2017-10-28T04:25:49.533Z,0
2017-10-28T04:26:49.206Z,0
2017-10-28T04:27:48.530Z,0
2017-10-28T04:28:49.473Z,0
2017-10-28T04:29:48.815Z,0
2017-10-28T04:30:48.794Z,0
2017-10-28T04:31:49.103Z,0
2017-10-28T04:32:49.378Z,0
2017-10-28T04:33:49.069Z,0
2017-10-28T04:34:49.352Z,0
2017-10-28T04:35:49.343Z,0
2017-10-28T04:36:48.984Z,0
2017-10-28T04:37:48.959Z,0
2017-10-28T04:38:49.262Z,0
2017-10-28T04:39:48.929Z,0
2017-10-28T04:40:48.915Z,0
2017-10-28T04:41:48.881Z,0
2017-10-28T04:42:48.865Z,0
2017-10-28T04:43:48.853Z,0
2017-10-28T04:44:48.489Z,0
2017-10-28T04:45:49.154Z,0
2017-10-28T04:46:49.105Z,0
2017-10-28T04:47:48.460Z,0
2017-10-28T04:48:49.085Z,0
2017-10-28T04:49:49.046Z,0
2017-10-28T04:50:48.363Z,0
2017-10-28T04:51:49.012Z,0
2017-10-28T04:52:48.660Z,0
2017-10-28T04:53:47.993Z,0
2017-10-28T04:54:48.629Z,0
2017-10-28T04:55:48.322Z,0
2017-10-28T04:56:48.578Z,0
2017-10-28T04:57:48.562Z,0
2017-10-28T04:58:48.205Z,0
2017-10-28T04:59:48.181Z,0
2017-10-28T05:00:48.835Z,0
2017-10-28T05:01:48.161Z,0
2017-10-28T05:02:48.451Z,0
2017-10-28T05:03:48.105Z,0
2017-10-28T05:04:48.408Z,0
2017-10-28T05:05:48.063Z,0
2017-10-28T05:06:48.373Z,0
2017-10-28T05:07:48.659Z,0
2017-10-28T05:08:48.658Z,0
2017-10-28T05:09:47.972Z,0
2017-10-28T05:10:47.973Z,0
2017-10-28T05:11:48.264Z,0
2017-10-28T05:12:48.254Z,0
2017-10-28T05:13:47.892Z,0
2017-10-28T05:14:48.193Z,0
2017-10-28T05:15:48.163Z,0
2017-10-28T05:16:48.486Z,0
2017-10-28T05:17:48.133Z,0
2017-10-28T05:18:48.454Z,0
2017-10-28T05:19:48.485Z,0
2017-10-28T05:20:48.092Z,0
2017-10-28T05:21:47.406Z,0
2017-10-28T05:22:47.705Z,0
2017-10-28T05:23:48.010Z,0
2017-10-28T05:24:47.988Z,0
2017-10-28T05:25:47.984Z,0
2017-10-28T05:26:47.958Z,0
2017-10-28T05:27:47.976Z,0
2017-10-28T05:28:48.246Z,0
2017-10-28T05:29:47.893Z,0
2017-10-28T05:30:47.870Z,0
2017-10-28T05:31:47.867Z,0
2017-10-28T05:32:47.824Z,0
2017-10-28T05:33:48.142Z,0
2017-10-28T05:34:48.123Z,0
2017-10-28T05:35:48.113Z,0
2017-10-28T05:36:48.123Z,0
2017-10-28T05:37:47.433Z,0
2017-10-28T05:38:48.030Z,0
2017-10-28T05:39:47.363Z,0
2017-10-28T05:40:48.059Z,0
2017-10-28T05:41:46.994Z,0
2017-10-28T05:42:47.957Z,0
2017-10-28T05:43:47.306Z,0
2017-10-28T05:44:47.677Z,0
2017-10-28T05:45:47.862Z,0
2017-10-28T05:46:47.893Z,0
2017-10-28T05:47:47.830Z,0
2017-10-28T05:48:47.804Z,0
2017-10-28T05:49:47.832Z,0
2017-10-28T05:50:47.464Z,0
2017-10-28T05:51:47.774Z,0
2017-10-28T05:52:47.448Z,0
2017-10-28T05:53:46.724Z,0
2017-10-28T05:54:47.704Z,0
2017-10-28T05:55:47.680Z,0
2017-10-28T05:56:46.984Z,0
2017-10-28T05:57:47.715Z,4
2017-10-28T05:58:47.312Z,4
2017-10-28T05:59:47.276Z,4
2017-10-28T06:00:47.260Z,0
2017-10-28T06:01:47.532Z,0
2017-10-28T06:02:46.882Z,4
2017-10-28T06:03:47.505Z,4
2017-10-28T06:04:47.553Z,4
2017-10-28T06:05:47.119Z,4
2017-10-28T06:06:46.794Z,8
2017-10-28T06:07:46.454Z,8
2017-10-28T06:08:47.398Z,8
2017-10-28T06:09:47.432Z,8
2017-10-28T06:10:47.383Z,8
2017-10-28T06:11:47.003Z,12
2017-10-28T06:12:46.326Z,12
2017-10-28T06:13:46.973Z,12
2017-10-28T06:14:46.936Z,16
2017-10-28T06:15:47.317Z,12
2017-10-28T06:16:46.902Z,16
2017-10-28T06:17:46.873Z,16
2017-10-28T06:18:46.206Z,16
2017-10-28T06:19:46.855Z,16
2017-10-28T06:20:46.845Z,20
2017-10-28T06:21:46.783Z,20
2017-10-28T06:22:46.442Z,28
2017-10-28T06:23:46.430Z,44
2017-10-28T06:24:46.742Z,56
2017-10-28T06:25:46.389Z,68
2017-10-28T06:26:46.683Z,64
2017-10-28T06:27:46.336Z,68
2017-10-28T06:28:46.637Z,60
2017-10-28T06:29:46.636Z,52
2017-10-28T06:30:45.950Z,48
2017-10-28T06:31:46.913Z,52
2017-10-28T06:32:46.244Z,56
2017-10-28T06:33:46.860Z,56
2017-10-28T06:34:46.532Z,56
2017-10-28T06:35:46.163Z,48
2017-10-28T06:36:46.482Z,48
2017-10-28T06:37:46.124Z,52
2017-10-28T06:38:46.765Z,56
2017-10-28T06:39:45.825Z,72
2017-10-28T06:40:46.395Z,92
2017-10-28T06:41:46.371Z,112
2017-10-28T06:42:46.684Z,116
2017-10-28T06:43:46.715Z,104
2017-10-28T06:44:46.633Z,100
2017-10-28T06:45:46.366Z,108
2017-10-28T06:46:46.613Z,112
2017-10-28T06:47:46.004Z,140
2017-10-28T06:48:46.219Z,152
2017-10-28T06:49:45.968Z,156
2017-10-28T06:50:46.190Z,156
2017-10-28T06:51:46.174Z,168
2017-10-28T06:52:46.153Z,192
2017-10-28T06:53:45.803Z,192
2017-10-28T06:54:45.778Z,208
2017-10-28T06:55:45.774Z,208
2017-10-28T06:56:46.386Z,184
2017-10-28T06:57:46.043Z,188
2017-10-28T06:58:46.025Z,180
2017-10-28T06:59:45.996Z,204
2017-10-28T07:00:45.664Z,232
2017-10-28T07:01:45.654Z,288
2017-10-28T07:02:45.953Z,356
2017-10-28T07:03:45.717Z,392
2017-10-28T07:04:45.595Z,496
2017-10-28T07:05:45.320Z,604
2017-10-28T07:06:46.186Z,696
2017-10-28T07:07:46.227Z,716
2017-10-28T07:08:45.814Z,700
2017-10-28T07:09:45.905Z,640
2017-10-28T07:10:45.913Z,624
2017-10-28T07:11:45.547Z,672
2017-10-28T07:12:45.792Z,716
2017-10-28T07:13:46.094Z,756
2017-10-28T07:14:45.055Z,932
2017-10-28T07:15:45.784Z,1012
2017-10-28T07:16:45.677Z,1000
2017-10-28T07:17:46.077Z,1016
2017-10-28T07:18:45.674Z,884
2017-10-28T07:19:46.051Z,652
2017-10-28T07:20:45.593Z,572
2017-10-28T07:21:45.893Z,516
2017-10-28T07:22:45.522Z,496
2017-10-28T07:23:45.894Z,412
2017-10-28T07:24:45.486Z,364
2017-10-28T07:25:45.789Z,304
2017-10-28T07:26:45.919Z,340
2017-10-28T07:27:45.763Z,296
2017-10-28T07:28:45.443Z,280
2017-10-28T07:29:45.499Z,288
2017-10-28T07:30:45.809Z,268
2017-10-28T07:31:45.752Z,300
2017-10-28T07:32:45.752Z,368
2017-10-28T07:33:45.627Z,436
2017-10-28T07:34:45.663Z,524
2017-10-28T07:35:45.259Z,668
2017-10-28T07:36:45.563Z,784
2017-10-28T07:37:45.555Z,736
2017-10-28T07:38:45.540Z,732
2017-10-28T07:39:45.583Z,640
2017-10-28T07:40:45.520Z,496
2017-10-28T07:41:45.580Z,480
2017-10-28T07:42:45.113Z,504
2017-10-28T07:43:45.082Z,500
2017-10-28T07:44:45.405Z,444
2017-10-28T07:45:45.163Z,432
2017-10-28T07:46:45.033Z,416
2017-10-28T07:47:45.032Z,496
2017-10-28T07:48:44.999Z,528
2017-10-28T07:49:45.293Z,608
2017-10-28T07:50:45.277Z,636
2017-10-28T07:51:44.926Z,656
2017-10-28T07:52:45.381Z,680
2017-10-28T07:53:44.885Z,680
2017-10-28T07:54:44.524Z,640
2017-10-28T07:55:45.151Z,648
2017-10-28T07:56:45.137Z,588
2017-10-28T07:57:45.134Z,632
2017-10-28T07:58:45.103Z,668
2017-10-28T07:59:44.812Z,632
2017-10-28T08:00:44.416Z,552
2017-10-28T08:01:45.047Z,552
2017-10-28T08:02:45.032Z,576
2017-10-28T08:03:44.672Z,588
2017-10-28T08:04:44.984Z,696
2017-10-28T08:05:44.306Z,728
2017-10-28T08:06:44.951Z,972
2017-10-28T08:07:44.913Z,1148
2017-10-28T08:08:44.582Z,1088
2017-10-28T08:09:44.554Z,1120
2017-10-28T08:10:44.207Z,1084
2017-10-28T08:11:44.501Z,976
2017-10-28T08:12:44.816Z,988
2017-10-28T08:13:44.476Z,1108
2017-10-28T08:14:44.450Z,1152
2017-10-28T08:15:44.423Z,1112
2017-10-28T08:16:44.081Z,1180
2017-10-28T08:17:44.721Z,1160
2017-10-28T08:18:44.686Z,1168
2017-10-28T08:19:44.675Z,1172
2017-10-28T08:20:44.321Z,1088
2017-10-28T08:21:44.383Z,1068
2017-10-28T08:22:44.613Z,1040
2017-10-28T08:23:44.590Z,936
2017-10-28T08:24:44.572Z,876
2017-10-28T08:25:44.553Z,880
2017-10-28T08:26:44.533Z,952
2017-10-28T08:27:44.510Z,1012
2017-10-28T08:28:44.150Z,972
2017-10-28T08:29:44.466Z,1056
2017-10-28T08:30:44.481Z,1156
2017-10-28T08:31:44.445Z,1320
2017-10-28T08:32:43.801Z,1276
2017-10-28T08:33:44.395Z,1312
2017-10-28T08:34:43.716Z,1288
2017-10-28T08:35:44.010Z,1036
2017-10-28T08:36:44.306Z,1028
2017-10-28T08:37:44.314Z,964
2017-10-28T08:38:44.100Z,1132
2017-10-28T08:39:43.934Z,1240
2017-10-28T08:40:43.966Z,1116
2017-10-28T08:41:43.566Z,1220
2017-10-28T08:42:43.578Z,1292
2017-10-28T08:43:43.529Z,1496
2017-10-28T08:44:43.926Z,1456
2017-10-28T08:45:43.512Z,1324
2017-10-28T08:46:43.808Z,1360
2017-10-28T08:47:44.082Z,1472
2017-10-28T08:48:44.071Z,1568
2017-10-28T08:49:44.068Z,1392
2017-10-28T08:50:43.393Z,1600
2017-10-28T08:51:44.026Z,1848
2017-10-28T08:52:44.006Z,1948
2017-10-28T08:53:43.341Z,1896
2017-10-28T08:54:43.612Z,1792
2017-10-28T08:55:43.921Z,1872
2017-10-28T08:56:43.896Z,1792
2017-10-28T08:57:43.612Z,1964
2017-10-28T08:58:43.551Z,1968
2017-10-28T08:59:43.872Z,2048
2017-10-28T09:00:43.225Z,2088
2017-10-28T09:01:43.491Z,1924
2017-10-28T09:02:43.148Z,2400
2017-10-28T09:03:43.454Z,580
2017-10-28T09:04:43.125Z,388
2017-10-28T09:05:43.717Z,1832
2017-10-28T09:06:43.389Z,1796
2017-10-28T09:07:43.694Z,1708
2017-10-28T09:08:43.334Z,352
2017-10-28T09:09:43.336Z,128
2017-10-28T09:10:43.307Z,1440
2017-10-28T09:11:43.625Z,1244
2017-10-28T09:12:43.586Z,1412
2017-10-28T09:13:43.553Z,560
2017-10-28T09:14:43.563Z,1076
2017-10-28T09:15:43.528Z,1052
2017-10-28T09:16:43.182Z,968
2017-10-28T09:17:43.154Z,1052
2017-10-28T09:18:43.487Z,1296
2017-10-28T09:19:43.470Z,1572
2017-10-28T09:20:43.421Z,1788
2017-10-28T09:21:43.408Z,1916
2017-10-28T09:22:43.386Z,1944
2017-10-28T09:23:43.045Z,1884
2017-10-28T09:24:43.344Z,1796
2017-10-28T09:25:43.325Z,1724
2017-10-28T09:26:43.314Z,1680
2017-10-28T09:27:43.266Z,1656
2017-10-28T09:28:43.262Z,1624
2017-10-28T09:29:43.233Z,1500
2017-10-28T09:30:43.218Z,1376
2017-10-28T09:31:42.884Z,1436
2017-10-28T09:32:43.182Z,1500
2017-10-28T09:33:43.176Z,1524
2017-10-28T09:34:43.125Z,1552
2017-10-28T09:35:43.120Z,1528
2017-10-28T09:36:43.125Z,1468
2017-10-28T09:37:43.073Z,1392
2017-10-28T09:38:43.136Z,1356
2017-10-28T09:39:43.044Z,1396
2017-10-28T09:40:42.353Z,1424
2017-10-28T09:41:42.993Z,1396
2017-10-28T09:42:42.987Z,1400
2017-10-28T09:43:42.643Z,1256
2017-10-28T09:44:42.286Z,1140
2017-10-28T09:45:42.610Z,1020
2017-10-28T09:46:42.872Z,952
2017-10-28T09:47:42.900Z,1008
2017-10-28T09:48:42.556Z,1104
2017-10-28T09:49:42.828Z,1116
2017-10-28T09:50:42.815Z,1296
2017-10-28T09:51:42.479Z,1180
2017-10-28T09:52:42.765Z,1004
2017-10-28T09:53:42.422Z,892
2017-10-28T09:54:42.744Z,1100
2017-10-28T09:55:42.417Z,1240
2017-10-28T09:56:42.671Z,1396
2017-10-28T09:57:42.077Z,1384
2017-10-28T09:58:42.657Z,1484
2017-10-28T09:59:42.614Z,1476
2017-10-28T10:00:42.597Z,1384
2017-10-28T10:01:42.375Z,1160
2017-10-28T10:02:42.592Z,1096
2017-10-28T10:03:42.232Z,1024
2017-10-28T10:04:42.184Z,1020
2017-10-28T10:05:42.514Z,1044
2017-10-28T10:06:42.490Z,1044
2017-10-28T10:07:42.474Z,860
2017-10-28T10:08:42.456Z,772
2017-10-28T10:09:42.421Z,800
2017-10-28T10:10:42.082Z,768
2017-10-28T10:11:42.068Z,928
2017-10-28T10:12:42.056Z,1220
2017-10-28T10:13:42.087Z,1344
2017-10-28T10:14:41.684Z,1504
2017-10-28T10:15:41.975Z,1652
2017-10-28T10:16:42.263Z,1856
2017-10-28T10:17:41.963Z,1860
2017-10-28T10:18:42.232Z,1648
2017-10-28T10:19:42.251Z,1648
2017-10-28T10:20:42.206Z,1396
2017-10-28T10:21:41.518Z,1324
2017-10-28T10:22:41.834Z,1260
2017-10-28T10:23:41.836Z,1252
2017-10-28T10:24:42.118Z,1280
2017-10-28T10:25:42.093Z,1256
2017-10-28T10:26:42.075Z,1212
2017-10-28T10:27:41.726Z,1228
2017-10-28T10:28:41.704Z,1156
2017-10-28T10:29:41.775Z,1052
2017-10-28T10:30:41.653Z,940
2017-10-28T10:31:41.623Z,1136
2017-10-28T10:32:41.686Z,1056
2017-10-28T10:33:41.948Z,1164
2017-10-28T10:34:41.600Z,1532
2017-10-28T10:35:41.884Z,1716
2017-10-28T10:36:41.886Z,1752
2017-10-28T10:37:41.834Z,1564
2017-10-28T10:38:41.506Z,1452
2017-10-28T10:39:41.486Z,1268
2017-10-28T10:40:41.779Z,1328
2017-10-28T10:41:41.782Z,1596
2017-10-28T10:42:41.443Z,1608
2017-10-28T10:43:41.719Z,1384
2017-10-28T10:44:41.713Z,1340
2017-10-28T10:45:41.702Z,1096
2017-10-28T10:46:41.673Z,872
2017-10-28T10:47:40.996Z,932
2017-10-28T10:48:41.303Z,988
2017-10-28T10:49:41.274Z,1056
2017-10-28T10:50:41.259Z,1224
2017-10-28T10:51:41.601Z,1236
2017-10-28T10:52:41.574Z,1328
2017-10-28T10:53:41.534Z,1300
2017-10-28T10:54:41.493Z,1376
2017-10-28T10:55:41.486Z,1364
2017-10-28T10:56:41.142Z,1192
2017-10-28T10:57:41.142Z,1208
2017-10-28T10:58:41.417Z,1480
2017-10-28T10:59:41.409Z,1688
2017-10-28T11:00:41.385Z,1784
2017-10-28T11:01:41.035Z,1772
2017-10-28T11:02:41.012Z,1804
2017-10-28T11:03:41.006Z,1800
2017-10-28T11:04:40.993Z,1732
2017-10-28T11:05:40.963Z,1756
2017-10-28T11:06:40.618Z,1812
2017-10-28T11:07:41.274Z,1740
2017-10-28T11:08:40.902Z,1572
2017-10-28T11:09:40.884Z,1536
2017-10-28T11:10:40.874Z,1480
2017-10-28T11:11:40.841Z,1516
2017-10-28T11:12:40.823Z,1592
2017-10-28T11:13:41.125Z,1604
2017-10-28T11:14:40.788Z,1668
2017-10-28T11:15:40.767Z,1688
2017-10-28T11:16:40.740Z,1804
2017-10-28T11:17:40.726Z,2008
2017-10-28T11:18:41.025Z,2044
2017-10-28T11:19:40.676Z,1908
2017-10-28T11:20:40.975Z,1588
2017-10-28T11:21:40.963Z,1400
2017-10-28T11:22:40.953Z,1464
2017-10-28T11:23:40.607Z,1284
2017-10-28T11:24:40.916Z,1228
2017-10-28T11:25:40.568Z,1276
2017-10-28T11:26:40.530Z,1564
2017-10-28T11:27:40.680Z,1580
2017-10-28T11:28:40.575Z,1556
2017-10-28T11:29:40.548Z,1612
2017-10-28T11:30:40.465Z,1660
2017-10-28T11:31:40.660Z,1652
2017-10-28T11:32:40.757Z,1504
2017-10-28T11:33:40.426Z,1552
2017-10-28T11:34:40.766Z,1380
2017-10-28T11:35:40.696Z,1228
2017-10-28T11:36:40.674Z,1244
2017-10-28T11:37:40.436Z,1256
2017-10-28T11:38:40.647Z,1136
2017-10-28T11:39:40.627Z,1076
2017-10-28T11:40:40.617Z,1012
2017-10-28T11:41:40.264Z,948
2017-10-28T11:42:40.224Z,948
2017-10-28T11:43:40.185Z,916
2017-10-28T11:44:40.530Z,956
2017-10-28T11:45:40.553Z,944
2017-10-28T11:46:40.481Z,992
2017-10-28T11:47:40.463Z,1068
2017-10-28T11:48:39.846Z,952
2017-10-28T11:49:40.130Z,932
2017-10-28T11:50:40.391Z,928
2017-10-28T11:51:40.041Z,936
2017-10-28T11:52:40.348Z,988
2017-10-28T11:53:40.352Z,1016
2017-10-28T11:54:40.323Z,976
2017-10-28T11:55:40.282Z,1100
2017-10-28T11:56:40.313Z,1148
2017-10-28T11:57:40.029Z,1092
2017-10-28T11:58:40.246Z,964
2017-10-28T11:59:39.882Z,948
2017-10-28T12:00:40.347Z,924
2017-10-28T12:01:40.263Z,856
2017-10-28T12:02:39.859Z,916
2017-10-28T12:03:39.773Z,1016
2017-10-28T12:04:40.175Z,1012
2017-10-28T12:05:39.773Z,912
2017-10-28T12:06:40.292Z,920
2017-10-28T12:07:39.759Z,904
2017-10-28T12:08:39.681Z,888
2017-10-28T12:09:40.067Z,828
2017-10-28T12:10:40.026Z,824
2017-10-28T12:11:39.990Z,1000
2017-10-28T12:12:39.955Z,1244
2017-10-28T12:13:39.917Z,1424
2017-10-28T12:14:39.577Z,1508
2017-10-28T12:15:39.539Z,1688
2017-10-28T12:16:39.971Z,1836
2017-10-28T12:17:39.898Z,1892
2017-10-28T12:18:39.831Z,1648
2017-10-28T12:19:39.492Z,1696
2017-10-28T12:20:39.263Z,1676
2017-10-28T12:21:39.104Z,1456
2017-10-28T12:22:39.750Z,1428
2017-10-28T12:23:39.730Z,1532
2017-10-28T12:24:39.744Z,1504
2017-10-28T12:25:39.723Z,1556
2017-10-28T12:26:39.376Z,1704
2017-10-28T12:27:39.317Z,1756
2017-10-28T12:28:39.285Z,1776
2017-10-28T12:29:38.635Z,1596
2017-10-28T12:30:39.625Z,1508
2017-10-28T12:31:39.244Z,1472
2017-10-28T12:32:38.894Z,1408
2017-10-28T12:33:39.548Z,1368
2017-10-28T12:34:39.213Z,1272
2017-10-28T12:35:39.473Z,1296
2017-10-28T12:36:39.145Z,1292
2017-10-28T12:37:39.122Z,1448
2017-10-28T12:38:39.424Z,1672
2017-10-28T12:39:39.426Z,1824
2017-10-28T12:40:39.063Z,1860
2017-10-28T12:41:39.445Z,1744
2017-10-28T12:42:38.696Z,1484
2017-10-28T12:43:39.359Z,1544
2017-10-28T12:44:39.010Z,1528
2017-10-28T12:45:38.972Z,1412
2017-10-28T12:46:38.945Z,1428
2017-10-28T12:47:39.225Z,1524
2017-10-28T12:48:39.222Z,1536
2017-10-28T12:49:39.205Z,1516
2017-10-28T12:50:39.226Z,1364
2017-10-28T12:51:38.855Z,1284
2017-10-28T12:52:39.184Z,1292
2017-10-28T12:53:38.804Z,1272
2017-10-28T12:54:38.463Z,1276
2017-10-28T12:55:38.756Z,1164
2017-10-28T12:56:39.142Z,1092
2017-10-28T12:57:39.065Z,1004
2017-10-28T12:58:38.723Z,988
2017-10-28T12:59:38.707Z,940
2017-10-28T13:00:38.981Z,928
2017-10-28T13:01:38.641Z,904
2017-10-28T13:02:38.663Z,956
2017-10-28T13:03:38.991Z,988
2017-10-28T13:04:39.009Z,948
2017-10-28T13:05:38.931Z,872
2017-10-28T13:06:38.913Z,812
2017-10-28T13:07:38.825Z,824
2017-10-28T13:08:38.534Z,924
2017-10-28T13:09:38.812Z,984
2017-10-28T13:10:38.492Z,980
2017-10-28T13:11:38.809Z,892
2017-10-28T13:12:38.443Z,808
2017-10-28T13:13:38.767Z,816
2017-10-28T13:14:38.385Z,872
2017-10-28T13:15:38.391Z,992
2017-10-28T13:16:38.687Z,976
2017-10-28T13:17:38.399Z,884
2017-10-28T13:18:38.702Z,860
2017-10-28T13:19:38.287Z,944
2017-10-28T13:20:38.599Z,1076
2017-10-28T13:21:38.797Z,1020
2017-10-28T13:22:38.583Z,884
2017-10-28T13:23:38.541Z,840
2017-10-28T13:24:38.520Z,832
2017-10-28T13:25:38.194Z,852
2017-10-28T13:26:38.495Z,872
2017-10-28T13:27:38.177Z,868
2017-10-28T13:28:38.482Z,1020
2017-10-28T13:29:37.763Z,960
2017-10-28T13:30:38.464Z,876
2017-10-28T13:31:38.447Z,820
2017-10-28T13:32:38.372Z,812
2017-10-28T13:33:38.497Z,728
2017-10-28T13:34:38.371Z,792
2017-10-28T13:35:38.399Z,840
2017-10-28T13:36:38.337Z,740
2017-10-28T13:37:37.954Z,772
2017-10-28T13:38:37.942Z,828
2017-10-28T13:39:37.976Z,728
2017-10-28T13:40:37.884Z,648
2017-10-28T13:41:38.163Z,620
2017-10-28T13:42:38.354Z,684
2017-10-28T13:43:38.252Z,812
2017-10-28T13:44:37.773Z,872
2017-10-28T13:45:38.112Z,856
2017-10-28T13:46:38.134Z,956
2017-10-28T13:47:37.751Z,1000
2017-10-28T13:48:38.038Z,976
2017-10-28T13:49:37.692Z,992
2017-10-28T13:50:38.016Z,1088
2017-10-28T13:51:37.657Z,1016
2017-10-28T13:52:37.963Z,936
2017-10-28T13:53:38.012Z,884
2017-10-28T13:54:37.643Z,816
2017-10-28T13:55:37.915Z,812
2017-10-28T13:56:37.559Z,864
2017-10-28T13:57:37.879Z,896
2017-10-28T13:58:37.915Z,876
2017-10-28T13:59:37.835Z,748
2017-10-28T14:00:37.803Z,672
2017-10-28T14:01:37.817Z,644
2017-10-28T14:02:37.467Z,636
2017-10-28T14:03:37.775Z,616